createdAt,value
2024-04-14T00:01:55.361Z,1
2024-04-14T00:03:56.435Z,1
2024-04-14T00:05:55.257Z,1
2024-04-14T00:07:56.241Z,1
2024-04-14T00:09:55.366Z,1
2024-04-14T00:11:57.811Z,1
2024-04-14T00:13:55.288Z,1
2024-04-14T00:15:57.071Z,1
2024-04-14T00:17:55.320Z,1
2024-04-14T00:19:54.992Z,1
2024-04-14T00:21:55.359Z,1
2024-04-14T00:23:56.149Z,1
2024-04-14T00:25:55.354Z,1
2024-04-14T00:27:57.138Z,1
2024-04-14T00:29:55.313Z,1
2024-04-14T00:31:57.480Z,1
2024-04-14T00:33:55.336Z,1
2024-04-14T00:35:57.074Z,1
2024-04-14T00:37:55.289Z,1
2024-04-14T00:39:56.824Z,1
2024-04-14T00:41:55.202Z,1
2024-04-14T00:43:56.162Z,1
2024-04-14T00:45:55.540Z,1
2024-04-14T00:47:56.056Z,1
2024-04-14T00:49:55.267Z,1
2024-04-14T00:51:57.454Z,1
2024-04-14T00:53:55.223Z,1
2024-04-14T00:55:57.385Z,1
2024-04-14T00:57:55.362Z,1
2024-04-14T00:59:57.057Z,1
2024-04-14T01:01:55.334Z,1
2024-04-14T01:03:57.978Z,1
2024-04-14T01:05:55.367Z,1
2024-04-14T01:07:57.715Z,1
2024-04-14T01:09:55.290Z,1
2024-04-14T01:11:56.647Z,1
2024-04-14T01:13:55.236Z,1
2024-04-14T01:15:58.033Z,1
2024-04-14T01:17:55.303Z,1
2024-04-14T01:19:56.316Z,1
2024-04-14T01:21:55.372Z,1
2024-04-14T01:23:58.016Z,1
2024-04-14T01:25:58.183Z,1
2024-04-14T01:27:55.345Z,1
2024-04-14T01:29:56.580Z,1
2024-04-14T01:31:55.305Z,1
2024-04-14T01:33:56.899Z,1
2024-04-14T01:35:55.300Z,1
2024-04-14T01:38:01.958Z,1
2024-04-14T01:39:55.390Z,1
2024-04-14T01:41:55.975Z,1
2024-04-14T01:43:54.785Z,1
2024-04-14T01:45:55.330Z,1
2024-04-14T01:47:56.104Z,1
2024-04-14T01:49:55.182Z,1
2024-04-14T01:51:56.150Z,1
2024-04-14T01:53:55.312Z,1
2024-04-14T01:55:56.125Z,1
2024-04-14T01:57:55.402Z,1
2024-04-14T01:59:57.015Z,1
2024-04-14T02:01:55.260Z,1
2024-04-14T02:03:57.819Z,1
2024-04-14T02:05:55.266Z,1
2024-04-14T02:07:56.512Z,1
2024-04-14T02:09:55.354Z,1
2024-04-14T02:11:56.164Z,1
2024-04-14T02:13:55.274Z,1
2024-04-14T02:15:54.838Z,1
2024-04-14T02:17:55.544Z,1
2024-04-14T02:19:57.151Z,1
2024-04-14T02:21:55.364Z,1
2024-04-14T02:23:57.865Z,1
2024-04-14T02:25:55.265Z,1
2024-04-14T02:27:56.759Z,1
2024-04-14T02:29:55.216Z,1
2024-04-14T02:31:56.348Z,1
2024-04-14T02:33:55.381Z,1
2024-04-14T02:35:57.695Z,1
2024-04-14T02:37:58.114Z,1
2024-04-14T02:39:55.417Z,1
2024-04-14T02:41:56.509Z,1
2024-04-14T02:43:55.287Z,1
2024-04-14T02:45:56.653Z,1
2024-04-14T02:47:55.290Z,1
2024-04-14T02:49:57.929Z,1
2024-04-14T02:51:55.420Z,1
2024-04-14T02:53:57.932Z,1
2024-04-14T02:55:55.258Z,1
2024-04-14T02:57:56.608Z,1
2024-04-14T02:59:58.178Z,1
2024-04-14T03:01:58.085Z,1
2024-04-14T03:03:55.389Z,1
2024-04-14T03:05:57.481Z,1
2024-04-14T03:07:55.365Z,1
2024-04-14T03:09:58.034Z,1
2024-04-14T03:11:55.218Z,1
2024-04-14T03:13:55.541Z,1
2024-04-14T03:15:58.216Z,1
2024-04-14T03:17:55.272Z,1
2024-04-14T03:19:56.566Z,1
2024-04-14T03:21:55.335Z,1
2024-04-14T03:23:56.137Z,1
2024-04-14T03:25:55.330Z,1
2024-04-14T03:27:56.129Z,1
2024-04-14T03:29:55.245Z,1
2024-04-14T03:31:56.324Z,1
2024-04-14T03:33:55.423Z,1
2024-04-14T03:35:56.967Z,1
2024-04-14T03:37:55.402Z,0
2024-04-14T03:39:56.337Z,0
2024-04-14T03:41:55.268Z,0
2024-04-14T03:43:56.860Z,0
2024-04-14T03:45:55.441Z,0.1
2024-04-14T03:47:57.433Z,0.1
2024-04-14T03:49:55.304Z,0.2
2024-04-14T03:51:56.815Z,0.3
2024-04-14T03:53:55.303Z,0.4
2024-04-14T03:55:57.075Z,0.6
2024-04-14T03:57:55.363Z,0.8
2024-04-14T03:59:57.806Z,1.3
2024-04-14T04:01:55.369Z,1.7
2024-04-14T04:03:56.392Z,2.6
2024-04-14T04:05:55.364Z,3.9
2024-04-14T04:07:55.975Z,5.5
2024-04-14T04:09:55.425Z,8.2
2024-04-14T04:11:58.061Z,12.2
2024-04-14T04:13:55.326Z,16.4
2024-04-14T04:15:56.263Z,22.2
2024-04-14T04:17:55.357Z,30
2024-04-14T04:19:57.974Z,38.5
2024-04-14T04:21:58.255Z,49.4
2024-04-14T04:23:55.326Z,60.3
2024-04-14T04:25:56.480Z,73.7
2024-04-14T04:27:58.274Z,90
2024-04-14T04:29:55.284Z,109.9
2024-04-14T04:31:58.692Z,134.3
2024-04-14T04:33:55.363Z,164
2024-04-14T04:35:56.309Z,190.6
2024-04-14T04:37:55.348Z,221.4
2024-04-14T04:39:58.040Z,257.2
2024-04-14T04:41:55.272Z,284.3
2024-04-14T04:43:56.188Z,330.3
2024-04-14T04:45:55.475Z,365
2024-04-14T04:47:57.629Z,424.1
2024-04-14T04:49:55.324Z,468.7
2024-04-14T04:51:56.085Z,492.7
2024-04-14T04:53:58.262Z,544.6
2024-04-14T04:55:55.429Z,572.5
2024-04-14T04:57:55.860Z,632.7
2024-04-14T04:59:57.719Z,665.1
2024-04-14T05:01:55.262Z,735.1
2024-04-14T05:03:56.278Z,772.8
2024-04-14T05:05:55.343Z,854.1
2024-04-14T05:07:58.562Z,897.8
2024-04-14T05:09:55.367Z,943.9
2024-04-14T05:11:54.703Z,943.9
2024-04-14T05:13:55.309Z,1096.6
2024-04-14T05:15:56.191Z,1152.9
2024-04-14T05:17:55.405Z,1212
2024-04-14T05:19:58.484Z,1212
2024-04-14T05:21:55.440Z,1274.1
2024-04-14T05:23:56.277Z,1274.1
2024-04-14T05:25:55.208Z,1274.1
2024-04-14T05:27:57.461Z,1274.1
2024-04-14T05:29:58.190Z,1339.4
2024-04-14T05:31:55.307Z,1408.1
2024-04-14T05:33:57.497Z,1408.1
2024-04-14T05:35:55.398Z,1480.3
2024-04-14T05:37:56.521Z,1556.2
2024-04-14T05:39:58.242Z,1636
2024-04-14T05:41:58.151Z,1719.9
2024-04-14T05:43:55.313Z,1719.9
2024-04-14T05:45:56.287Z,1808
2024-04-14T05:47:55.422Z,1808
2024-04-14T05:49:57.926Z,1998.2
2024-04-14T05:51:55.532Z,1998.2
2024-04-14T05:53:56.423Z,1998.2
2024-04-14T05:55:55.388Z,2100.6
2024-04-14T05:57:57.133Z,2100.6
2024-04-14T05:59:58.330Z,2100.6
2024-04-14T06:01:55.374Z,2208.3
2024-04-14T06:03:55.861Z,2208.3
2024-04-14T06:05:56.176Z,2208.3
2024-04-14T06:07:55.318Z,2208.3
2024-04-14T06:09:54.873Z,2321.6
2024-04-14T06:11:58.232Z,2321.6
2024-04-14T06:13:55.335Z,2440.6
2024-04-14T06:15:57.227Z,2565.7
2024-04-14T06:17:55.300Z,2565.7
2024-04-14T06:19:56.838Z,2835.6
2024-04-14T06:21:58.255Z,3294.5
2024-04-14T06:23:55.297Z,3463.4
2024-04-14T06:25:56.381Z,4447.1
2024-04-14T06:27:55.307Z,4914.8
2024-04-14T06:29:56.162Z,4230.2
2024-04-14T06:31:55.345Z,4914.8
2024-04-14T06:33:57.244Z,5166.8
2024-04-14T06:35:55.387Z,5431.7
2024-04-14T06:37:56.138Z,5431.7
2024-04-14T06:39:55.446Z,6310.7
2024-04-14T06:41:58.241Z,6634.2
2024-04-14T06:43:55.361Z,5710.1
2024-04-14T06:45:56.307Z,6974.4
2024-04-14T06:47:55.454Z,7332
2024-04-14T06:49:56.295Z,6634.2
2024-04-14T06:51:55.846Z,7707.9
2024-04-14T06:53:56.521Z,8955.3
2024-04-14T06:55:55.330Z,8518.5
2024-04-14T06:57:56.542Z,8103.1
2024-04-14T06:59:55.286Z,8955.3
2024-04-14T07:01:56.284Z,8518.5
2024-04-14T07:03:55.452Z,9897.1
2024-04-14T07:05:56.431Z,8955.3
2024-04-14T07:07:55.360Z,9414.4
2024-04-14T07:09:56.134Z,8518.5
2024-04-14T07:11:55.573Z,9897.1
2024-04-14T07:13:56.537Z,9897.1
2024-04-14T07:15:55.402Z,11498.8
2024-04-14T07:17:58.248Z,10938
2024-04-14T07:19:55.283Z,11498.8
2024-04-14T07:21:54.978Z,11498.8
2024-04-14T07:23:55.350Z,10938
2024-04-14T07:25:56.396Z,12708.2
2024-04-14T07:27:55.379Z,11498.8
2024-04-14T07:29:57.009Z,13359.7
2024-04-14T07:31:55.337Z,14044.7
2024-04-14T07:33:56.838Z,16317.6
2024-04-14T07:35:58.209Z,12088.4
2024-04-14T07:37:55.415Z,6634.2
2024-04-14T07:39:57.310Z,6310.7
2024-04-14T07:41:55.404Z,6310.7
2024-04-14T07:43:56.220Z,6002.9
2024-04-14T07:45:55.367Z,6002.9
2024-04-14T07:47:56.340Z,6002.9
2024-04-14T07:49:55.414Z,6310.7
2024-04-14T07:51:57.702Z,6634.2
2024-04-14T07:53:55.395Z,6634.2
2024-04-14T07:55:57.762Z,6634.2
2024-04-14T07:57:55.405Z,6974.4
2024-04-14T07:59:56.247Z,6974.4
2024-04-14T08:01:55.326Z,7332
2024-04-14T08:03:57.794Z,7707.9
2024-04-14T08:05:55.305Z,7332
2024-04-14T08:07:57.974Z,7332
2024-04-14T08:09:55.419Z,7332
2024-04-14T08:11:57.043Z,7332
2024-04-14T08:13:55.438Z,7707.9
2024-04-14T08:15:56.760Z,7332
2024-04-14T08:17:55.434Z,7332
2024-04-14T08:19:57.941Z,7332
2024-04-14T08:21:55.412Z,7332
2024-04-14T08:23:57.121Z,7707.9
2024-04-14T08:25:55.332Z,7332
2024-04-14T08:27:57.150Z,8103.1
2024-04-14T08:29:55.804Z,8103.1
2024-04-14T08:31:57.048Z,8518.5
2024-04-14T08:33:55.461Z,8518.5
2024-04-14T08:35:56.529Z,8518.5
2024-04-14T08:37:55.370Z,8955.3
2024-04-14T08:39:56.697Z,8518.5
2024-04-14T08:41:58.203Z,8955.3
2024-04-14T08:43:58.214Z,9414.4
2024-04-14T08:45:55.429Z,9414.4
2024-04-14T08:47:55.974Z,8955.3
2024-04-14T08:49:56.557Z,9897.1
2024-04-14T08:51:58.409Z,9897.1
2024-04-14T08:53:57.246Z,10404.6
2024-04-14T08:55:58.054Z,10938
2024-04-14T08:57:55.400Z,10404.6
2024-04-14T08:59:55.082Z,10404.6
2024-04-14T09:01:55.401Z,10938
2024-04-14T09:03:55.162Z,10938
2024-04-14T09:05:55.294Z,10938
2024-04-14T09:07:56.322Z,10404.6
2024-04-14T09:09:58.276Z,10404.6
2024-04-14T09:11:55.315Z,10404.6
2024-04-14T09:13:56.659Z,10938
2024-04-14T09:15:55.476Z,10938
2024-04-14T09:17:56.112Z,10938
2024-04-14T09:19:55.381Z,11498.8
2024-04-14T09:21:54.494Z,10938
2024-04-14T09:23:58.408Z,10938
2024-04-14T09:25:55.480Z,11498.8
2024-04-14T09:27:56.588Z,11498.8
2024-04-14T09:29:55.324Z,11498.8
2024-04-14T09:31:58.566Z,11498.8
2024-04-14T09:33:55.369Z,11498.8
2024-04-14T09:35:56.324Z,11498.8
2024-04-14T09:37:57.420Z,11498.8
2024-04-14T09:39:58.207Z,12088.4
2024-04-14T09:41:58.150Z,12088.4
2024-04-14T09:43:55.367Z,12088.4
2024-04-14T09:45:57.254Z,12088.4
2024-04-14T09:47:58.327Z,12088.4
2024-04-14T09:49:55.323Z,12088.4
2024-04-14T09:51:55.616Z,12088.4
2024-04-14T09:53:55.301Z,12088.4
2024-04-14T09:55:56.256Z,12088.4
2024-04-14T09:57:55.458Z,12088.4
2024-04-14T09:59:56.257Z,12708.2
2024-04-14T10:01:55.362Z,12708.2
2024-04-14T10:03:55.843Z,13359.7
2024-04-14T10:05:57.210Z,12708.2
2024-04-14T10:07:55.345Z,12088.4
2024-04-14T10:09:56.305Z,12708.2
2024-04-14T10:11:55.372Z,12088.4
2024-04-14T10:13:54.495Z,12088.4
2024-04-14T10:15:55.384Z,12088.4
2024-04-14T10:17:57.639Z,12088.4
2024-04-14T10:19:55.438Z,12088.4
2024-04-14T10:21:57.111Z,12088.4
2024-04-14T10:23:55.366Z,11498.8
2024-04-14T10:25:57.100Z,11498.8
2024-04-14T10:27:55.474Z,11498.8
2024-04-14T10:29:56.226Z,11498.8
2024-04-14T10:31:55.398Z,11498.8
2024-04-14T10:33:56.564Z,12088.4
2024-04-14T10:35:58.319Z,12088.4
2024-04-14T10:37:55.464Z,12088.4
2024-04-14T10:39:56.616Z,12088.4
2024-04-14T10:41:55.352Z,12088.4
2024-04-14T10:43:56.267Z,12708.2
2024-04-14T10:45:55.405Z,12708.2
2024-04-14T10:47:57.793Z,12708.2
2024-04-14T10:49:55.336Z,12708.2
2024-04-14T10:51:56.319Z,12708.2
2024-04-14T10:53:55.339Z,13359.7
2024-04-14T10:55:54.690Z,13359.7
2024-04-14T10:57:55.466Z,13359.7
2024-04-14T10:59:56.546Z,14044.7
2024-04-14T11:01:55.329Z,14044.7
2024-04-14T11:03:56.275Z,13359.7
2024-04-14T11:05:55.371Z,13359.7
2024-04-14T11:07:57.036Z,13359.7
2024-04-14T11:09:55.424Z,13359.7
2024-04-14T11:11:57.119Z,13359.7
2024-04-14T11:13:55.409Z,13359.7
2024-04-14T11:15:56.335Z,13359.7
2024-04-14T11:17:55.343Z,13359.7
2024-04-14T11:19:56.236Z,13359.7
2024-04-14T11:21:56.938Z,13359.7
2024-04-14T11:23:57.406Z,12088.4
2024-04-14T11:25:55.414Z,12708.2
2024-04-14T11:27:56.739Z,12708.2
2024-04-14T11:29:55.346Z,12708.2
2024-04-14T11:31:56.614Z,12088.4
2024-04-14T11:33:55.626Z,12708.2
2024-04-14T11:35:56.685Z,12708.2
2024-04-14T11:37:55.335Z,12708.2
2024-04-14T11:39:55.947Z,12708.2
2024-04-14T11:41:57.268Z,12708.2
2024-04-14T11:43:58.315Z,11498.8
2024-04-14T11:45:55.394Z,12088.4
2024-04-14T11:47:57.225Z,12708.2
2024-04-14T11:49:55.388Z,13359.7
2024-04-14T11:51:56.243Z,13359.7
2024-04-14T11:53:55.428Z,12708.2
2024-04-14T11:55:56.460Z,12088.4
2024-04-14T11:57:58.274Z,12708.2
2024-04-14T11:59:55.432Z,12708.2
2024-04-14T12:01:56.206Z,12088.4
2024-04-14T12:03:55.492Z,12088.4
2024-04-14T12:05:58.069Z,13359.7
2024-04-14T12:07:55.427Z,12708.2
2024-04-14T12:09:57.221Z,12708.2
2024-04-14T12:11:55.463Z,12708.2
2024-04-14T12:13:56.207Z,12088.4
2024-04-14T12:15:55.522Z,11498.8
2024-04-14T12:17:57.849Z,12088.4
2024-04-14T12:19:55.383Z,12708.2
2024-04-14T12:21:56.368Z,12708.2
2024-04-14T12:23:55.437Z,12708.2
2024-04-14T12:25:56.643Z,13359.7
2024-04-14T12:27:55.458Z,11498.8
2024-04-14T12:29:56.238Z,12708.2
2024-04-14T12:31:58.273Z,11498.8
2024-04-14T12:33:55.423Z,12088.4
2024-04-14T12:35:54.909Z,12088.4
2024-04-14T12:37:55.347Z,12088.4
2024-04-14T12:39:56.402Z,11498.8
2024-04-14T12:41:58.176Z,11498.8
2024-04-14T12:43:55.416Z,12088.4
2024-04-14T12:45:58.286Z,12088.4
2024-04-14T12:47:55.847Z,11498.8
2024-04-14T12:49:57.322Z,11498.8
2024-04-14T12:51:55.453Z,11498.8
2024-04-14T12:53:57.575Z,11498.8
2024-04-14T12:55:55.328Z,12708.2
2024-04-14T12:57:56.258Z,12088.4
2024-04-14T12:59:55.450Z,11498.8
2024-04-14T13:01:56.345Z,12088.4
2024-04-14T13:03:55.413Z,11498.8
2024-04-14T13:05:57.919Z,11498.8
2024-04-14T13:07:55.347Z,11498.8
2024-04-14T13:09:54.953Z,11498.8
2024-04-14T13:11:55.440Z,11498.8
2024-04-14T13:13:58.153Z,12088.4
2024-04-14T13:15:55.447Z,11498.8
2024-04-14T13:17:56.280Z,11498.8
2024-04-14T13:19:55.758Z,10404.6
2024-04-14T13:21:56.639Z,10938
2024-04-14T13:23:55.368Z,10938
2024-04-14T13:25:56.768Z,10404.6
2024-04-14T13:27:55.432Z,10938
2024-04-14T13:29:58.078Z,10404.6
2024-04-14T13:31:55.408Z,10938
2024-04-14T13:33:57.877Z,10938
2024-04-14T13:35:55.383Z,10404.6
2024-04-14T13:37:56.159Z,10404.6
2024-04-14T13:39:55.487Z,10404.6
2024-04-14T13:41:56.265Z,10404.6
2024-04-14T13:43:55.359Z,10404.6
2024-04-14T13:45:54.875Z,9897.1
2024-04-14T13:47:55.414Z,9897.1
2024-04-14T13:49:57.196Z,9414.4
2024-04-14T13:51:55.432Z,9414.4
2024-04-14T13:53:57.536Z,9414.4
2024-04-14T13:55:55.366Z,8955.3
2024-04-14T13:57:58.071Z,9414.4
2024-04-14T13:59:55.392Z,9414.4
2024-04-14T14:01:56.924Z,8955.3
2024-04-14T14:03:55.434Z,8955.3
2024-04-14T14:05:55.357Z,8955.3
2024-04-14T14:07:55.486Z,8103.1
2024-04-14T14:09:56.617Z,8518.5
2024-04-14T14:11:55.612Z,8103.1
2024-04-14T14:13:56.617Z,8103.1
2024-04-14T14:15:55.465Z,8103.1
2024-04-14T14:17:56.545Z,8103.1
2024-04-14T14:19:55.316Z,8518.5
2024-04-14T14:21:57.119Z,8103.1
2024-04-14T14:23:55.361Z,8103.1
2024-04-14T14:25:57.978Z,7707.9
2024-04-14T14:27:55.445Z,7332
2024-04-14T14:29:56.474Z,7332
2024-04-14T14:31:55.333Z,7332
2024-04-14T14:33:56.634Z,7707.9
2024-04-14T14:35:55.330Z,8103.1
2024-04-14T14:37:59.384Z,7332
2024-04-14T14:39:55.440Z,7332
2024-04-14T14:41:55.842Z,7332
2024-04-14T14:43:56.365Z,6634.2
2024-04-14T14:45:55.407Z,6634.2
2024-04-14T14:47:56.729Z,6974.4
2024-04-14T14:49:55.376Z,6634.2
2024-04-14T14:51:54.540Z,6634.2
2024-04-14T14:53:56.517Z,6634.2
2024-04-14T14:55:55.436Z,6634.2
2024-04-14T14:57:56.762Z,6310.7
2024-04-14T14:59:55.580Z,6002.9
2024-04-14T15:01:57.164Z,6002.9
2024-04-14T15:03:55.653Z,6002.9
2024-04-14T15:05:56.152Z,6002.9
2024-04-14T15:07:55.364Z,5710.1
2024-04-14T15:09:58.006Z,5710.1
2024-04-14T15:11:55.356Z,5431.7
2024-04-14T15:13:56.359Z,5166.8
2024-04-14T15:15:55.412Z,5166.8
2024-04-14T15:17:56.320Z,4914.8
2024-04-14T15:19:55.370Z,5166.8
2024-04-14T15:21:54.953Z,5166.8
2024-04-14T15:23:55.376Z,4675.1
2024-04-14T15:25:56.049Z,4675.1
2024-04-14T15:27:55.542Z,5166.8
2024-04-14T15:29:58.236Z,4447.1
2024-04-14T15:31:55.479Z,4230.2
2024-04-14T15:33:57.158Z,4230.2
2024-04-14T15:35:55.463Z,4230.2
2024-04-14T15:37:57.846Z,4023.9
2024-04-14T15:39:55.547Z,4023.9
2024-04-14T15:41:57.175Z,4230.2
2024-04-14T15:43:57.537Z,4447.1
2024-04-14T15:45:57.653Z,4447.1
2024-04-14T15:47:55.443Z,4230.2
2024-04-14T15:49:54.455Z,4230.2
2024-04-14T15:51:55.917Z,4230.2
2024-04-14T15:53:57.080Z,4447.1
2024-04-14T15:55:55.398Z,4447.1
2024-04-14T15:57:56.619Z,4230.2
2024-04-14T15:59:55.453Z,3827.6
2024-04-14T16:01:56.278Z,3827.6
2024-04-14T16:03:55.555Z,3641
2024-04-14T16:05:57.043Z,3641
2024-04-14T16:07:55.416Z,3827.6
2024-04-14T16:09:57.199Z,3641
2024-04-14T16:11:55.464Z,3463.4
2024-04-14T16:13:57.191Z,3463.4
2024-04-14T16:15:55.504Z,3294.5
2024-04-14T16:17:57.570Z,3294.5
2024-04-14T16:19:55.478Z,3463.4
2024-04-14T16:21:57.384Z,3294.5
2024-04-14T16:23:55.440Z,3294.5
2024-04-14T16:25:54.821Z,3133.8
2024-04-14T16:27:55.502Z,3133.8
2024-04-14T16:29:57.079Z,2981
2024-04-14T16:31:55.646Z,2835.6
2024-04-14T16:33:58.179Z,2697.3
2024-04-14T16:35:55.578Z,2697.3
2024-04-14T16:37:57.534Z,2565.7
2024-04-14T16:39:55.693Z,2565.7
2024-04-14T16:41:57.950Z,2440.6
2024-04-14T16:43:55.512Z,2440.6
2024-04-14T16:45:57.500Z,2321.6
2024-04-14T16:47:55.500Z,2208.3
2024-04-14T16:49:57.717Z,2100.6
2024-04-14T16:51:55.473Z,2100.6
2024-04-14T16:53:56.703Z,2100.6
2024-04-14T16:55:58.344Z,1998.2
2024-04-14T16:57:55.571Z,1900.7
2024-04-14T16:59:57.130Z,1808
2024-04-14T17:01:55.473Z,1719.9
2024-04-14T17:03:55.343Z,1636
2024-04-14T17:05:55.434Z,1556.2
2024-04-14T17:07:57.346Z,1480.3
2024-04-14T17:09:55.477Z,1408.1
2024-04-14T17:11:57.024Z,1339.4
2024-04-14T17:13:55.463Z,1212
2024-04-14T17:15:57.927Z,1096.6
2024-04-14T17:17:57.772Z,1043.1
2024-04-14T17:19:56.854Z,992.3
2024-04-14T17:21:55.498Z,943.9
2024-04-14T17:23:54.985Z,897.8
2024-04-14T17:25:55.558Z,854.1
2024-04-14T17:27:57.639Z,699.2
2024-04-14T17:29:55.474Z,632.7
2024-04-14T17:31:56.333Z,601.8
2024-04-14T17:33:55.464Z,572.5
2024-04-14T17:35:56.712Z,518
2024-04-14T17:37:55.442Z,492.7
2024-04-14T17:39:56.430Z,445.9
2024-04-14T17:41:55.507Z,403.4
2024-04-14T17:43:57.022Z,383.8
2024-04-14T17:45:55.492Z,330.3
2024-04-14T17:47:57.237Z,284.3
2024-04-14T17:49:55.528Z,257.2
2024-04-14T17:51:57.728Z,221.4
2024-04-14T17:53:55.519Z,190.6
2024-04-14T17:55:57.766Z,164
2024-04-14T17:57:55.479Z,134.3
2024-04-14T17:59:57.051Z,104.6
2024-04-14T18:01:58.322Z,81.5
2024-04-14T18:03:55.487Z,63.4
2024-04-14T18:05:57.220Z,51.9
2024-04-14T18:07:55.935Z,44.7
2024-04-14T18:09:57.009Z,36.6
2024-04-14T18:11:55.438Z,30
2024-04-14T18:13:57.114Z,24.5
2024-04-14T18:15:55.764Z,19.1
2024-04-14T18:17:56.171Z,14.9
2024-04-14T18:19:55.447Z,11.6
2024-04-14T18:21:56.895Z,8.2
2024-04-14T18:23:56.901Z,5.8
2024-04-14T18:25:56.366Z,4.1
2024-04-14T18:27:55.699Z,2.9
2024-04-14T18:29:56.786Z,2
2024-04-14T18:31:55.570Z,1.3
2024-04-14T18:33:57.726Z,0.9
2024-04-14T18:35:55.561Z,0.7
2024-04-14T18:37:56.596Z,0.4
2024-04-14T18:39:55.667Z,0.3
2024-04-14T18:41:55.222Z,0.3
2024-04-14T18:43:55.648Z,0.2
2024-04-14T18:45:56.729Z,0.1
2024-04-14T18:47:55.720Z,0.1
2024-04-14T18:49:58.245Z,0
2024-04-14T18:51:55.683Z,0
2024-04-14T18:53:56.520Z,0
2024-04-14T18:55:55.629Z,0
2024-04-14T18:57:56.336Z,0
2024-04-14T18:59:55.609Z,1
2024-04-14T19:01:56.743Z,1
2024-04-14T19:03:55.693Z,1
2024-04-14T19:05:57.395Z,1
2024-04-14T19:07:55.563Z,1
2024-04-14T19:09:56.805Z,1
2024-04-14T19:11:55.658Z,1
2024-04-14T19:13:59.067Z,1
2024-04-14T19:15:55.656Z,1
2024-04-14T19:17:56.471Z,1
2024-04-14T19:19:55.578Z,1
2024-04-14T19:21:57.364Z,1
2024-04-14T19:23:55.577Z,1
2024-04-14T19:25:56.846Z,1
2024-04-14T19:27:55.796Z,1
2024-04-14T19:29:56.598Z,1
2024-04-14T19:31:55.847Z,1
2024-04-14T19:33:56.835Z,1
2024-04-14T19:35:57.015Z,1
2024-04-14T19:37:56.599Z,1
2024-04-14T19:39:55.789Z,1
2024-04-14T19:41:57.298Z,1
2024-04-14T19:43:55.695Z,1
2024-04-14T19:45:57.975Z,1
2024-04-14T19:47:55.672Z,1
2024-04-14T19:49:58.272Z,1
2024-04-14T19:51:55.700Z,1
2024-04-14T19:53:57.957Z,1
2024-04-14T19:55:55.693Z,1
2024-04-14T19:57:58.039Z,1
2024-04-14T19:59:55.655Z,1
2024-04-14T20:01:57.159Z,1
2024-04-14T20:03:55.753Z,1
2024-04-14T20:05:56.702Z,1
2024-04-14T20:07:55.620Z,1
2024-04-14T20:09:57.395Z,1
2024-04-14T20:11:55.699Z,1
2024-04-14T20:13:56.721Z,1
2024-04-14T20:15:55.668Z,1
2024-04-14T20:17:57.807Z,1
2024-04-14T20:19:55.648Z,1
2024-04-14T20:21:56.901Z,1
2024-04-14T20:23:55.652Z,1
2024-04-14T20:25:57.931Z,1
2024-04-14T20:27:55.686Z,1
2024-04-14T20:29:56.522Z,1
2024-04-14T20:31:55.608Z,1
2024-04-14T20:33:58.211Z,1
2024-04-14T20:35:55.617Z,1
2024-04-14T20:37:56.711Z,1
2024-04-14T20:39:55.705Z,1
2024-04-14T20:41:54.944Z,1
2024-04-14T20:43:55.605Z,1
2024-04-14T20:45:57.125Z,1
2024-04-14T20:47:55.734Z,1
2024-04-14T20:49:54.990Z,1
2024-04-14T20:51:55.669Z,1
2024-04-14T20:53:57.701Z,1
2024-04-14T20:55:55.671Z,1
2024-04-14T20:57:57.328Z,1
2024-04-14T20:59:55.675Z,1
2024-04-14T21:01:57.642Z,1
2024-04-14T21:03:55.811Z,1
2024-04-14T21:05:56.829Z,1
2024-04-14T21:07:55.692Z,1
2024-04-14T21:09:58.314Z,1
2024-04-14T21:11:55.603Z,1
2024-04-14T21:13:56.705Z,1
2024-04-14T21:15:55.691Z,1
2024-04-14T21:17:57.267Z,1
2024-04-14T21:19:55.697Z,1
2024-04-14T21:21:56.468Z,1
2024-04-14T21:23:55.683Z,1
2024-04-14T21:25:58.281Z,1
2024-04-14T21:27:55.673Z,1
2024-04-14T21:29:57.644Z,1
2024-04-14T21:31:55.735Z,1
2024-04-14T21:33:56.875Z,1
2024-04-14T21:35:55.660Z,1
2024-04-14T21:37:58.044Z,1
2024-04-14T21:39:55.679Z,1
2024-04-14T21:41:58.462Z,1
2024-04-14T21:43:55.587Z,1
2024-04-14T21:45:57.799Z,1
2024-04-14T21:47:55.690Z,1
2024-04-14T21:49:56.861Z,1
2024-04-14T21:51:55.676Z,1
2024-04-14T21:53:56.692Z,1
2024-04-14T21:55:55.622Z,1
2024-04-14T21:57:56.565Z,1
2024-04-14T21:59:55.565Z,1
2024-04-14T22:01:58.074Z,1
2024-04-14T22:04:01.259Z,1
2024-04-14T22:05:58.150Z,1
2024-04-14T22:07:55.656Z,1
2024-04-14T22:09:57.617Z,1
2024-04-14T22:11:55.635Z,1
2024-04-14T22:13:56.514Z,1
2024-04-14T22:15:55.719Z,1
2024-04-14T22:17:56.695Z,1
2024-04-14T22:19:55.670Z,1
2024-04-14T22:21:56.764Z,1
2024-04-14T22:23:55.706Z,1
2024-04-14T22:25:57.288Z,1
2024-04-14T22:27:55.893Z,1
2024-04-14T22:29:56.619Z,1
2024-04-14T22:31:55.713Z,1
2024-04-14T22:33:56.903Z,1
2024-04-14T22:35:55.552Z,1
2024-04-14T22:37:57.441Z,1
2024-04-14T22:39:55.671Z,1
2024-04-14T22:41:57.710Z,1
2024-04-14T22:43:55.689Z,1
2024-04-14T22:45:55.034Z,1
2024-04-14T22:47:55.635Z,1
2024-04-14T22:49:56.690Z,1
2024-04-14T22:51:55.707Z,1
2024-04-14T22:53:57.272Z,1
2024-04-14T22:55:55.652Z,1
2024-04-14T22:57:56.847Z,1
2024-04-14T22:59:55.680Z,1
2024-04-14T23:01:56.881Z,1
2024-04-14T23:03:55.657Z,1
2024-04-14T23:05:58.475Z,1
2024-04-14T23:07:55.646Z,1
2024-04-14T23:09:57.247Z,1
2024-04-14T23:11:55.707Z,1
2024-04-14T23:13:56.425Z,1
2024-04-14T23:15:55.754Z,1
2024-04-14T23:17:57.660Z,1
2024-04-14T23:19:55.684Z,1
2024-04-14T23:21:58.106Z,1
2024-04-14T23:23:55.684Z,1
2024-04-14T23:25:57.339Z,1
2024-04-14T23:27:55.734Z,1
2024-04-14T23:29:56.683Z,1
2024-04-14T23:31:55.719Z,1
2024-04-14T23:33:57.805Z,1
2024-04-14T23:35:55.685Z,1
2024-04-14T23:37:56.903Z,1
2024-04-14T23:39:55.678Z,1
2024-04-14T23:41:56.283Z,1
2024-04-14T23:43:55.715Z,1
2024-04-14T23:45:57.755Z,1
2024-04-14T23:47:55.783Z,1
2024-04-14T23:49:56.449Z,1
2024-04-14T23:51:56.057Z,1
2024-04-14T23:53:57.727Z,1
2024-04-14T23:55:55.698Z,1
2024-04-14T23:57:58.261Z,1
2024-04-14T23:59:55.712Z,1
